Overview Statistics Trail Chart Weather Telemetry Raw packets
 

This is the latest recevied telemetry packets stored in our database for station/object IK4HPS-15. If no packets are shown the sender has not sent any telemetry packets the latest 10 day(s).

Telemetry packets is used to share measurements like repeteater parameters, battery voltage, radiation readings (or any other measurements).

<< 1 2 3 4 >>
Time Press* Temp.in* Hum* QNH* Temp.out*
1778184512 1016.6 hPa 22.5 C deg 0 % 1017.2 hPa 0 C deg
1778179554 1015.9 hPa 22.7 C deg 0 % 1016.5 hPa 0 C deg
1778179185 1015.9 hPa 22.7 C deg 0 % 1016.5 hPa 0 C deg
1778177270 1015.5 hPa 22.7 C deg 0 % 1016.1 hPa 0 C deg
1778173636 1015.1 hPa 22.7 C deg 0 % 1015.7 hPa 0 C deg
1778170071 1014.8 hPa 22.8 C deg 0 % 1015.4 hPa 0 C deg
1778169989 1014.8 hPa 22.8 C deg 0 % 1015.4 hPa 0 C deg
1778168172 1014.8 hPa 22.9 C deg 0 % 1015.4 hPa 0 C deg
1778166431 1014.9 hPa 22.9 C deg 0 % 1015.5 hPa 0 C deg
1778164758 1015 hPa 22.8 C deg 0 % 1015.6 hPa 0 C deg
1778162730 1015 hPa 22.6 C deg 0 % 1015.6 hPa 0 C deg
1778157285 1015.5 hPa 22.5 C deg 0 % 1016.1 hPa 0 C deg
1778137411 1015.8 hPa 21.6 C deg 0 % 1016.4 hPa 0 C deg
1778133879 1015.5 hPa 21.5 C deg 0 % 1016.1 hPa 0 C deg
1778130185 1015 hPa 21.6 C deg 0 % 1015.5 hPa 0 C deg
1778128334 1014.5 hPa 21.6 C deg 0 % 1015.1 hPa 0 C deg
1778124715 1014.2 hPa 21.6 C deg 0 % 1014.7 hPa 0 C deg
1778122892 1014.2 hPa 21.6 C deg 0 % 1014.8 hPa 0 C deg
1778121076 1014.1 hPa 21.7 C deg 0 % 1014.6 hPa 0 C deg
1778119308 1014.2 hPa 21.7 C deg 0 % 1014.7 hPa 0 C deg
1778115711 1013.9 hPa 21.8 C deg 0 % 1014.5 hPa 0 C deg
1778113843 1013.9 hPa 21.8 C deg 0 % 1014.5 hPa 0 C deg
1778112076 1014 hPa 21.8 C deg 0 % 1014.6 hPa 0 C deg
1778112044 1014 hPa 21.8 C deg 0 % 1014.6 hPa 0 C deg
1778110191 1013.8 hPa 21.9 C deg 0 % 1014.4 hPa 0 C deg
*Used Equation Coefficients:
Press: 0, 1, 0
Temp.in: 0, 1, 0
Hum: 0, 1, 0
QNH: 0, 1, 0
Temp.out: 0, 1, 0

  • The parameter names for the analog channels will be Value1, Value2, Value3 (up to Value5) if station has not sent a PARAM-packet that specifies the parameter names for each analog channel.
  • Each analog value is a decimal number between 000 and 255 (according to APRS specifications). The receiver use the telemetry equation coefficientsto to restore the original sensor values. If no EQNS-packet with equation coefficients is sent we will show the values as is (this corresponds to the equation coefficients a=0, b=1 and c=0).
    The sent equation coefficients is used in the equation: a * value2 + b * value + c.
  • The units for the analog values will not be shown if station has not sent a UNIT-packet specifying what unit's to use.
  • The parameter names for the digital bits will be Bit1, Bit2, Bit3 (up to Bit8) if station has not sent a PARAM-packet that specifies the parameter names for each digital bit.
  • All bit labels will be named "On" if station has not sent a UNIT-packet that specifies the label of each bit.
  • A bit is considered to be On when the bit is 1 if station has not sent a BITS-packet that specifies another "Bit sense" (a BITS-packet specify the state of the bits that match the BIT labels)